sensor_id;sensor_type;location;lat;lon;timestamp;P1;durP1;ratioP1;P2;durP2;ratioP2
79487;SDS011;68949;53.176;18.088;2023-07-29T00:00:46;6.90;;;4.00;;
79487;SDS011;68949;53.176;18.088;2023-07-29T00:03:25;7.10;;;3.90;;
79487;SDS011;68949;53.176;18.088;2023-07-29T00:05:52;6.70;;;4.20;;
79487;SDS011;68949;53.176;18.088;2023-07-29T00:08:19;5.80;;;2.90;;
79487;SDS011;68949;53.176;18.088;2023-07-29T00:10:45;5.10;;;2.60;;
79487;SDS011;68949;53.176;18.088;2023-07-29T00:13:12;5.30;;;2.60;;
79487;SDS011;68949;53.176;18.088;2023-07-29T00:15:38;6.60;;;3.00;;
79487;SDS011;68949;53.176;18.088;2023-07-29T00:18:05;8.10;;;3.50;;
79487;SDS011;68949;53.176;18.088;2023-07-29T00:20:32;6.10;;;3.60;;
79487;SDS011;68949;53.176;18.088;2023-07-29T00:22:58;5.90;;;3.20;;
79487;SDS011;68949;53.176;18.088;2023-07-29T00:25:26;6.80;;;3.20;;
79487;SDS011;68949;53.176;18.088;2023-07-29T00:27:55;5.90;;;3.30;;
79487;SDS011;68949;53.176;18.088;2023-07-29T00:30:22;5.50;;;3.30;;
79487;SDS011;68949;53.176;18.088;2023-07-29T00:32:49;5.80;;;3.30;;
79487;SDS011;68949;53.176;18.088;2023-07-29T00:35:15;6.30;;;3.50;;
79487;SDS011;68949;53.176;18.088;2023-07-29T00:37:42;6.20;;;2.80;;
79487;SDS011;68949;53.176;18.088;2023-07-29T00:40:19;6.50;;;3.20;;
79487;SDS011;68949;53.176;18.088;2023-07-29T00:42:49;5.30;;;3.10;;
79487;SDS011;68949;53.176;18.088;2023-07-29T00:45:16;5.70;;;3.50;;
79487;SDS011;68949;53.176;18.088;2023-07-29T00:47:45;5.90;;;3.30;;
79487;SDS011;68949;53.176;18.088;2023-07-29T00:50:13;5.40;;;3.10;;
79487;SDS011;68949;53.176;18.088;2023-07-29T00:52:41;5.30;;;3.10;;
79487;SDS011;68949;53.176;18.088;2023-07-29T00:55:08;6.20;;;3.30;;
79487;SDS011;68949;53.176;18.088;2023-07-29T00:57:35;5.60;;;3.20;;
79487;SDS011;68949;53.176;18.088;2023-07-29T01:00:02;5.20;;;2.70;;
79487;SDS011;68949;53.176;18.088;2023-07-29T01:02:30;5.50;;;2.80;;
79487;SDS011;68949;53.176;18.088;2023-07-29T01:04:59;6.10;;;2.90;;
79487;SDS011;68949;53.176;18.088;2023-07-29T01:07:36;5.40;;;3.00;;
79487;SDS011;68949;53.176;18.088;2023-07-29T01:13:44;5.10;;;2.80;;
79487;SDS011;68949;53.176;18.088;2023-07-29T01:16:28;6.10;;;2.90;;
79487;SDS011;68949;53.176;18.088;2023-07-29T01:19:02;5.90;;;3.00;;
79487;SDS011;68949;53.176;18.088;2023-07-29T01:21:36;5.40;;;2.90;;
79487;SDS011;68949;53.176;18.088;2023-07-29T01:24:04;5.40;;;2.50;;
79487;SDS011;68949;53.176;18.088;2023-07-29T01:26:31;6.70;;;3.10;;
79487;SDS011;68949;53.176;18.088;2023-07-29T01:28:58;4.90;;;2.70;;
79487;SDS011;68949;53.176;18.088;2023-07-29T01:31:32;6.00;;;2.60;;
79487;SDS011;68949;53.176;18.088;2023-07-29T01:34:26;4.80;;;2.40;;
79487;SDS011;68949;53.176;18.088;2023-07-29T01:36:57;4.80;;;2.60;;
79487;SDS011;68949;53.176;18.088;2023-07-29T01:39:32;5.30;;;2.50;;
79487;SDS011;68949;53.176;18.088;2023-07-29T01:42:03;5.40;;;3.00;;
79487;SDS011;68949;53.176;18.088;2023-07-29T01:44:30;6.00;;;3.10;;
79487;SDS011;68949;53.176;18.088;2023-07-29T01:46:57;6.10;;;3.40;;
79487;SDS011;68949;53.176;18.088;2023-07-29T01:49:23;6.10;;;2.60;;
79487;SDS011;68949;53.176;18.088;2023-07-29T01:51:50;6.00;;;2.90;;
79487;SDS011;68949;53.176;18.088;2023-07-29T01:54:17;5.30;;;2.70;;
79487;SDS011;68949;53.176;18.088;2023-07-29T01:56:44;5.10;;;3.10;;
79487;SDS011;68949;53.176;18.088;2023-07-29T01:59:10;6.40;;;3.00;;
79487;SDS011;68949;53.176;18.088;2023-07-29T02:01:37;6.00;;;3.30;;
79487;SDS011;68949;53.176;18.088;2023-07-29T02:04:04;7.70;;;3.60;;
79487;SDS011;68949;53.176;18.088;2023-07-29T02:06:31;7.90;;;2.80;;
79487;SDS011;68949;53.176;18.088;2023-07-29T02:08:57;7.30;;;2.90;;
79487;SDS011;68949;53.176;18.088;2023-07-29T02:11:24;7.20;;;3.40;;
79487;SDS011;68949;53.176;18.088;2023-07-29T02:13:54;8.10;;;3.10;;
79487;SDS011;68949;53.176;18.088;2023-07-29T02:16:22;5.50;;;2.90;;
79487;SDS011;68949;53.176;18.088;2023-07-29T02:18:49;8.30;;;3.40;;
79487;SDS011;68949;53.176;18.088;2023-07-29T02:21:16;8.70;;;3.20;;
79487;SDS011;68949;53.176;18.088;2023-07-29T02:23:43;5.60;;;2.90;;
79487;SDS011;68949;53.176;18.088;2023-07-29T02:26:10;5.40;;;2.90;;
79487;SDS011;68949;53.176;18.088;2023-07-29T02:28:37;6.60;;;2.80;;
79487;SDS011;68949;53.176;18.088;2023-07-29T02:31:16;5.90;;;3.00;;
79487;SDS011;68949;53.176;18.088;2023-07-29T02:33:51;7.10;;;3.70;;
79487;SDS011;68949;53.176;18.088;2023-07-29T02:36:19;5.40;;;3.10;;
79487;SDS011;68949;53.176;18.088;2023-07-29T02:38:45;5.40;;;2.70;;
79487;SDS011;68949;53.176;18.088;2023-07-29T02:41:12;4.90;;;2.80;;
79487;SDS011;68949;53.176;18.088;2023-07-29T02:43:39;7.00;;;3.00;;
79487;SDS011;68949;53.176;18.088;2023-07-29T02:46:07;5.60;;;2.90;;
79487;SDS011;68949;53.176;18.088;2023-07-29T02:48:34;5.20;;;2.90;;
79487;SDS011;68949;53.176;18.088;2023-07-29T02:51:01;5.60;;;2.80;;
79487;SDS011;68949;53.176;18.088;2023-07-29T02:53:27;7.50;;;2.70;;
79487;SDS011;68949;53.176;18.088;2023-07-29T02:55:54;5.30;;;2.80;;
79487;SDS011;68949;53.176;18.088;2023-07-29T02:58:21;6.40;;;3.00;;
79487;SDS011;68949;53.176;18.088;2023-07-29T03:00:47;5.90;;;2.90;;
79487;SDS011;68949;53.176;18.088;2023-07-29T03:03:15;6.10;;;2.70;;
79487;SDS011;68949;53.176;18.088;2023-07-29T03:05:42;4.80;;;2.70;;
79487;SDS011;68949;53.176;18.088;2023-07-29T03:08:08;7.00;;;2.80;;
79487;SDS011;68949;53.176;18.088;2023-07-29T03:10:35;6.60;;;3.10;;
79487;SDS011;68949;53.176;18.088;2023-07-29T03:13:02;6.10;;;3.10;;
79487;SDS011;68949;53.176;18.088;2023-07-29T03:15:30;5.60;;;2.70;;
79487;SDS011;68949;53.176;18.088;2023-07-29T03:17:56;5.50;;;2.60;;
79487;SDS011;68949;53.176;18.088;2023-07-29T03:20:23;6.50;;;3.10;;
79487;SDS011;68949;53.176;18.088;2023-07-29T03:22:49;8.20;;;3.70;;
79487;SDS011;68949;53.176;18.088;2023-07-29T03:25:16;7.80;;;2.90;;
79487;SDS011;68949;53.176;18.088;2023-07-29T03:27:43;8.20;;;3.00;;
79487;SDS011;68949;53.176;18.088;2023-07-29T03:30:10;8.10;;;3.00;;
79487;SDS011;68949;53.176;18.088;2023-07-29T03:32:43;10.40;;;3.40;;
79487;SDS011;68949;53.176;18.088;2023-07-29T03:35:12;9.20;;;3.50;;
79487;SDS011;68949;53.176;18.088;2023-07-29T03:37:39;6.00;;;3.40;;
79487;SDS011;68949;53.176;18.088;2023-07-29T03:40:07;8.10;;;3.60;;
79487;SDS011;68949;53.176;18.088;2023-07-29T03:42:36;7.30;;;3.50;;
79487;SDS011;68949;53.176;18.088;2023-07-29T03:45:03;7.70;;;3.70;;
79487;SDS011;68949;53.176;18.088;2023-07-29T03:47:30;8.20;;;3.60;;
79487;SDS011;68949;53.176;18.088;2023-07-29T03:49:57;5.50;;;3.10;;
79487;SDS011;68949;53.176;18.088;2023-07-29T03:52:24;6.70;;;3.80;;
79487;SDS011;68949;53.176;18.088;2023-07-29T03:54:50;7.90;;;3.80;;
79487;SDS011;68949;53.176;18.088;2023-07-29T03:57:17;5.70;;;3.50;;
79487;SDS011;68949;53.176;18.088;2023-07-29T03:59:44;7.30;;;3.40;;
79487;SDS011;68949;53.176;18.088;2023-07-29T04:02:10;7.00;;;3.60;;
79487;SDS011;68949;53.176;18.088;2023-07-29T04:04:37;5.80;;;3.90;;
79487;SDS011;68949;53.176;18.088;2023-07-29T04:07:04;6.00;;;4.00;;
79487;SDS011;68949;53.176;18.088;2023-07-29T04:09:32;5.90;;;4.10;;
79487;SDS011;68949;53.176;18.088;2023-07-29T04:11:59;8.00;;;3.80;;
79487;SDS011;68949;53.176;18.088;2023-07-29T04:14:25;7.30;;;3.50;;
79487;SDS011;68949;53.176;18.088;2023-07-29T04:16:52;6.20;;;3.50;;
79487;SDS011;68949;53.176;18.088;2023-07-29T04:19:19;7.60;;;4.00;;
79487;SDS011;68949;53.176;18.088;2023-07-29T04:21:45;6.50;;;3.60;;
79487;SDS011;68949;53.176;18.088;2023-07-29T04:24:12;8.20;;;3.50;;
79487;SDS011;68949;53.176;18.088;2023-07-29T04:26:39;5.30;;;3.60;;
79487;SDS011;68949;53.176;18.088;2023-07-29T04:29:05;8.20;;;3.80;;
79487;SDS011;68949;53.176;18.088;2023-07-29T04:31:32;7.60;;;4.10;;
79487;SDS011;68949;53.176;18.088;2023-07-29T04:33:59;7.20;;;4.10;;
79487;SDS011;68949;53.176;18.088;2023-07-29T04:36:25;5.90;;;4.20;;
79487;SDS011;68949;53.176;18.088;2023-07-29T04:38:52;6.20;;;4.40;;
79487;SDS011;68949;53.176;18.088;2023-07-29T04:41:19;7.80;;;4.40;;
79487;SDS011;68949;53.176;18.088;2023-07-29T04:43:45;9.10;;;4.70;;
79487;SDS011;68949;53.176;18.088;2023-07-29T04:46:12;6.90;;;4.20;;
79487;SDS011;68949;53.176;18.088;2023-07-29T04:48:39;9.10;;;4.00;;
79487;SDS011;68949;53.176;18.088;2023-07-29T04:51:06;8.60;;;4.70;;
79487;SDS011;68949;53.176;18.088;2023-07-29T04:53:33;6.50;;;4.30;;
79487;SDS011;68949;53.176;18.088;2023-07-29T04:56:02;9.30;;;4.70;;
79487;SDS011;68949;53.176;18.088;2023-07-29T04:58:29;9.40;;;4.50;;
79487;SDS011;68949;53.176;18.088;2023-07-29T05:00:58;9.00;;;4.80;;
79487;SDS011;68949;53.176;18.088;2023-07-29T05:03:25;6.60;;;5.00;;
79487;SDS011;68949;53.176;18.088;2023-07-29T05:05:51;7.10;;;4.80;;
79487;SDS011;68949;53.176;18.088;2023-07-29T05:08:20;6.70;;;5.10;;
79487;SDS011;68949;53.176;18.088;2023-07-29T05:10:50;8.50;;;5.00;;
79487;SDS011;68949;53.176;18.088;2023-07-29T05:13:18;8.40;;;5.30;;
79487;SDS011;68949;53.176;18.088;2023-07-29T05:15:50;8.70;;;5.40;;
79487;SDS011;68949;53.176;18.088;2023-07-29T05:18:17;6.50;;;5.00;;
79487;SDS011;68949;53.176;18.088;2023-07-29T05:20:44;6.90;;;4.60;;
79487;SDS011;68949;53.176;18.088;2023-07-29T05:23:11;6.60;;;4.80;;
79487;SDS011;68949;53.176;18.088;2023-07-29T05:25:39;7.40;;;5.20;;
79487;SDS011;68949;53.176;18.088;2023-07-29T05:28:09;6.60;;;4.50;;
79487;SDS011;68949;53.176;18.088;2023-07-29T05:30:35;7.30;;;4.20;;
79487;SDS011;68949;53.176;18.088;2023-07-29T05:33:04;5.80;;;4.20;;
79487;SDS011;68949;53.176;18.088;2023-07-29T05:35:31;5.90;;;4.40;;
79487;SDS011;68949;53.176;18.088;2023-07-29T05:37:58;6.70;;;5.10;;
79487;SDS011;68949;53.176;18.088;2023-07-29T05:40:24;5.30;;;3.80;;
79487;SDS011;68949;53.176;18.088;2023-07-29T05:42:51;6.90;;;4.50;;
79487;SDS011;68949;53.176;18.088;2023-07-29T05:45:17;6.20;;;3.60;;
79487;SDS011;68949;53.176;18.088;2023-07-29T05:47:44;7.40;;;4.30;;
79487;SDS011;68949;53.176;18.088;2023-07-29T05:50:11;6.10;;;4.10;;
79487;SDS011;68949;53.176;18.088;2023-07-29T05:52:37;7.00;;;4.00;;
79487;SDS011;68949;53.176;18.088;2023-07-29T05:55:04;6.20;;;3.50;;
79487;SDS011;68949;53.176;18.088;2023-07-29T05:57:32;7.20;;;3.80;;
79487;SDS011;68949;53.176;18.088;2023-07-29T05:59:58;6.10;;;3.60;;
79487;SDS011;68949;53.176;18.088;2023-07-29T06:02:25;5.40;;;3.80;;
79487;SDS011;68949;53.176;18.088;2023-07-29T06:04:52;5.40;;;3.40;;
79487;SDS011;68949;53.176;18.088;2023-07-29T06:07:19;6.50;;;4.20;;
79487;SDS011;68949;53.176;18.088;2023-07-29T06:09:46;5.90;;;4.00;;
79487;SDS011;68949;53.176;18.088;2023-07-29T06:12:13;6.70;;;4.40;;
79487;SDS011;68949;53.176;18.088;2023-07-29T06:14:40;6.50;;;4.20;;
79487;SDS011;68949;53.176;18.088;2023-07-29T06:17:06;6.60;;;3.80;;
79487;SDS011;68949;53.176;18.088;2023-07-29T06:19:35;6.90;;;4.10;;
79487;SDS011;68949;53.176;18.088;2023-07-29T06:22:01;5.90;;;3.60;;
79487;SDS011;68949;53.176;18.088;2023-07-29T06:24:28;5.60;;;3.50;;
79487;SDS011;68949;53.176;18.088;2023-07-29T06:26:54;5.50;;;3.70;;
79487;SDS011;68949;53.176;18.088;2023-07-29T06:29:21;5.70;;;3.50;;
79487;SDS011;68949;53.176;18.088;2023-07-29T06:31:48;6.70;;;4.00;;
79487;SDS011;68949;53.176;18.088;2023-07-29T06:34:14;6.40;;;3.80;;
79487;SDS011;68949;53.176;18.088;2023-07-29T06:36:41;5.50;;;3.70;;
79487;SDS011;68949;53.176;18.088;2023-07-29T06:39:08;6.60;;;4.00;;
79487;SDS011;68949;53.176;18.088;2023-07-29T06:41:34;5.60;;;3.80;;
79487;SDS011;68949;53.176;18.088;2023-07-29T06:44:04;6.00;;;3.30;;
79487;SDS011;68949;53.176;18.088;2023-07-29T06:46:30;6.70;;;3.90;;
79487;SDS011;68949;53.176;18.088;2023-07-29T06:48:57;6.50;;;4.10;;
79487;SDS011;68949;53.176;18.088;2023-07-29T06:51:24;8.60;;;3.40;;
79487;SDS011;68949;53.176;18.088;2023-07-29T06:53:50;5.40;;;3.30;;
79487;SDS011;68949;53.176;18.088;2023-07-29T06:56:17;5.50;;;3.10;;
79487;SDS011;68949;53.176;18.088;2023-07-29T06:58:44;5.90;;;3.30;;
79487;SDS011;68949;53.176;18.088;2023-07-29T07:01:10;6.40;;;3.50;;
79487;SDS011;68949;53.176;18.088;2023-07-29T07:03:37;5.00;;;2.70;;
79487;SDS011;68949;53.176;18.088;2023-07-29T07:06:04;6.50;;;3.10;;
79487;SDS011;68949;53.176;18.088;2023-07-29T07:08:31;6.90;;;2.60;;
79487;SDS011;68949;53.176;18.088;2023-07-29T07:10:58;4.70;;;2.60;;
79487;SDS011;68949;53.176;18.088;2023-07-29T07:13:25;5.20;;;2.70;;
79487;SDS011;68949;53.176;18.088;2023-07-29T07:15:54;6.30;;;2.60;;
79487;SDS011;68949;53.176;18.088;2023-07-29T07:18:21;5.80;;;2.60;;
79487;SDS011;68949;53.176;18.088;2023-07-29T07:20:51;5.20;;;2.60;;
79487;SDS011;68949;53.176;18.088;2023-07-29T07:23:18;3.90;;;2.20;;
79487;SDS011;68949;53.176;18.088;2023-07-29T07:25:45;4.90;;;1.60;;
79487;SDS011;68949;53.176;18.088;2023-07-29T07:28:12;3.90;;;2.60;;
79487;SDS011;68949;53.176;18.088;2023-07-29T07:30:42;4.20;;;2.00;;
79487;SDS011;68949;53.176;18.088;2023-07-29T07:33:09;3.90;;;2.00;;
79487;SDS011;68949;53.176;18.088;2023-07-29T07:35:37;4.10;;;1.80;;
79487;SDS011;68949;53.176;18.088;2023-07-29T07:38:04;3.90;;;2.10;;
79487;SDS011;68949;53.176;18.088;2023-07-29T07:40:31;4.60;;;2.40;;
79487;SDS011;68949;53.176;18.088;2023-07-29T07:42:58;3.90;;;2.00;;
79487;SDS011;68949;53.176;18.088;2023-07-29T07:45:24;3.70;;;2.10;;
79487;SDS011;68949;53.176;18.088;2023-07-29T07:47:52;4.00;;;1.80;;
79487;SDS011;68949;53.176;18.088;2023-07-29T07:50:20;3.00;;;1.20;;
79487;SDS011;68949;53.176;18.088;2023-07-29T07:52:47;3.60;;;1.70;;
79487;SDS011;68949;53.176;18.088;2023-07-29T07:55:13;3.10;;;1.30;;
79487;SDS011;68949;53.176;18.088;2023-07-29T07:57:40;3.70;;;1.40;;
79487;SDS011;68949;53.176;18.088;2023-07-29T08:00:07;2.50;;;1.00;;
79487;SDS011;68949;53.176;18.088;2023-07-29T08:02:43;4.40;;;1.30;;
79487;SDS011;68949;53.176;18.088;2023-07-29T08:05:10;3.40;;;1.70;;
79487;SDS011;68949;53.176;18.088;2023-07-29T08:07:37;4.10;;;2.10;;
79487;SDS011;68949;53.176;18.088;2023-07-29T08:10:04;4.80;;;2.00;;
79487;SDS011;68949;53.176;18.088;2023-07-29T08:12:31;4.70;;;1.50;;
79487;SDS011;68949;53.176;18.088;2023-07-29T08:14:58;3.20;;;1.40;;
79487;SDS011;68949;53.176;18.088;2023-07-29T08:17:24;4.30;;;1.90;;
79487;SDS011;68949;53.176;18.088;2023-07-29T08:19:51;3.40;;;1.50;;
79487;SDS011;68949;53.176;18.088;2023-07-29T08:22:18;3.90;;;1.60;;
79487;SDS011;68949;53.176;18.088;2023-07-29T08:24:44;4.40;;;1.80;;
79487;SDS011;68949;53.176;18.088;2023-07-29T08:27:11;3.60;;;1.70;;
79487;SDS011;68949;53.176;18.088;2023-07-29T08:29:38;4.00;;;1.90;;
79487;SDS011;68949;53.176;18.088;2023-07-29T08:32:05;3.40;;;1.60;;
79487;SDS011;68949;53.176;18.088;2023-07-29T08:34:32;4.60;;;1.80;;
79487;SDS011;68949;53.176;18.088;2023-07-29T08:36:59;5.40;;;1.70;;
79487;SDS011;68949;53.176;18.088;2023-07-29T08:39:26;3.50;;;1.60;;
79487;SDS011;68949;53.176;18.088;2023-07-29T08:42:01;5.60;;;1.50;;
79487;SDS011;68949;53.176;18.088;2023-07-29T08:44:43;3.90;;;1.70;;
79487;SDS011;68949;53.176;18.088;2023-07-29T08:47:11;6.90;;;1.70;;
79487;SDS011;68949;53.176;18.088;2023-07-29T08:49:41;3.80;;;1.40;;
79487;SDS011;68949;53.176;18.088;2023-07-29T08:52:09;3.30;;;1.30;;
79487;SDS011;68949;53.176;18.088;2023-07-29T08:54:38;3.70;;;1.70;;
79487;SDS011;68949;53.176;18.088;2023-07-29T08:57:06;3.50;;;1.60;;
79487;SDS011;68949;53.176;18.088;2023-07-29T08:59:33;3.60;;;1.70;;
79487;SDS011;68949;53.176;18.088;2023-07-29T09:02:00;4.20;;;1.80;;
79487;SDS011;68949;53.176;18.088;2023-07-29T09:04:27;3.90;;;1.70;;
79487;SDS011;68949;53.176;18.088;2023-07-29T09:06:55;4.40;;;1.80;;
79487;SDS011;68949;53.176;18.088;2023-07-29T09:09:22;3.50;;;1.40;;
79487;SDS011;68949;53.176;18.088;2023-07-29T09:11:57;3.70;;;1.60;;
79487;SDS011;68949;53.176;18.088;2023-07-29T09:14:24;4.60;;;1.90;;
79487;SDS011;68949;53.176;18.088;2023-07-29T09:16:51;3.10;;;1.40;;
79487;SDS011;68949;53.176;18.088;2023-07-29T09:19:18;3.70;;;1.80;;
79487;SDS011;68949;53.176;18.088;2023-07-29T09:21:46;3.50;;;1.70;;
79487;SDS011;68949;53.176;18.088;2023-07-29T09:24:16;3.40;;;1.40;;
79487;SDS011;68949;53.176;18.088;2023-07-29T09:26:50;3.50;;;1.50;;
79487;SDS011;68949;53.176;18.088;2023-07-29T09:29:22;4.00;;;1.70;;
79487;SDS011;68949;53.176;18.088;2023-07-29T09:31:51;3.10;;;1.50;;
79487;SDS011;68949;53.176;18.088;2023-07-29T09:34:18;3.60;;;1.40;;
79487;SDS011;68949;53.176;18.088;2023-07-29T09:36:44;3.20;;;1.30;;
79487;SDS011;68949;53.176;18.088;2023-07-29T09:39:13;4.60;;;1.40;;
79487;SDS011;68949;53.176;18.088;2023-07-29T09:41:47;4.00;;;1.30;;
79487;SDS011;68949;53.176;18.088;2023-07-29T09:44:15;3.30;;;1.40;;
79487;SDS011;68949;53.176;18.088;2023-07-29T09:46:46;3.20;;;1.30;;
79487;SDS011;68949;53.176;18.088;2023-07-29T09:49:15;4.60;;;1.40;;
79487;SDS011;68949;53.176;18.088;2023-07-29T09:51:44;2.90;;;1.30;;
79487;SDS011;68949;53.176;18.088;2023-07-29T09:54:10;5.10;;;1.60;;
79487;SDS011;68949;53.176;18.088;2023-07-29T09:56:41;2.80;;;1.30;;
79487;SDS011;68949;53.176;18.088;2023-07-29T09:59:12;4.30;;;1.50;;
79487;SDS011;68949;53.176;18.088;2023-07-29T10:01:41;3.40;;;1.40;;
79487;SDS011;68949;53.176;18.088;2023-07-29T10:04:09;3.40;;;1.50;;
79487;SDS011;68949;53.176;18.088;2023-07-29T10:06:36;4.20;;;1.70;;
79487;SDS011;68949;53.176;18.088;2023-07-29T10:09:05;5.40;;;1.60;;
79487;SDS011;68949;53.176;18.088;2023-07-29T10:11:32;4.00;;;1.50;;
79487;SDS011;68949;53.176;18.088;2023-07-29T10:14:00;3.00;;;1.20;;
79487;SDS011;68949;53.176;18.088;2023-07-29T10:16:28;3.50;;;1.20;;
79487;SDS011;68949;53.176;18.088;2023-07-29T10:18:56;3.10;;;1.20;;
79487;SDS011;68949;53.176;18.088;2023-07-29T10:21:24;3.60;;;1.60;;
79487;SDS011;68949;53.176;18.088;2023-07-29T10:23:53;4.90;;;1.80;;
79487;SDS011;68949;53.176;18.088;2023-07-29T10:26:25;4.00;;;1.80;;
79487;SDS011;68949;53.176;18.088;2023-07-29T10:28:59;3.50;;;1.80;;
79487;SDS011;68949;53.176;18.088;2023-07-29T10:31:32;2.90;;;1.20;;
79487;SDS011;68949;53.176;18.088;2023-07-29T10:34:00;3.30;;;1.20;;
79487;SDS011;68949;53.176;18.088;2023-07-29T10:36:27;3.70;;;1.20;;
79487;SDS011;68949;53.176;18.088;2023-07-29T10:38:55;2.60;;;1.00;;
79487;SDS011;68949;53.176;18.088;2023-07-29T10:41:22;3.20;;;1.20;;
79487;SDS011;68949;53.176;18.088;2023-07-29T10:43:49;3.50;;;1.30;;
79487;SDS011;68949;53.176;18.088;2023-07-29T10:46:18;2.60;;;0.90;;
79487;SDS011;68949;53.176;18.088;2023-07-29T10:51:31;2.60;;;1.00;;
79487;SDS011;68949;53.176;18.088;2023-07-29T10:54:12;4.50;;;1.10;;
79487;SDS011;68949;53.176;18.088;2023-07-29T10:56:42;2.40;;;0.80;;
79487;SDS011;68949;53.176;18.088;2023-07-29T11:01:57;2.60;;;0.90;;
79487;SDS011;68949;53.176;18.088;2023-07-29T11:04:27;2.70;;;1.10;;
79487;SDS011;68949;53.176;18.088;2023-07-29T11:12:40;2.60;;;1.00;;
79487;SDS011;68949;53.176;18.088;2023-07-29T11:17:51;2.30;;;1.00;;
79487;SDS011;68949;53.176;18.088;2023-07-29T11:20:21;3.10;;;1.00;;
79487;SDS011;68949;53.176;18.088;2023-07-29T11:23:00;3.60;;;1.20;;
79487;SDS011;68949;53.176;18.088;2023-07-29T11:25:30;2.70;;;1.10;;
79487;SDS011;68949;53.176;18.088;2023-07-29T11:28:00;2.80;;;1.00;;
79487;SDS011;68949;53.176;18.088;2023-07-29T11:30:28;2.40;;;1.00;;
79487;SDS011;68949;53.176;18.088;2023-07-29T11:32:58;4.10;;;1.30;;
79487;SDS011;68949;53.176;18.088;2023-07-29T11:35:26;2.90;;;1.20;;
79487;SDS011;68949;53.176;18.088;2023-07-29T11:37:55;3.10;;;1.40;;
79487;SDS011;68949;53.176;18.088;2023-07-29T11:40:27;2.90;;;1.20;;
79487;SDS011;68949;53.176;18.088;2023-07-29T11:42:54;3.40;;;1.10;;
79487;SDS011;68949;53.176;18.088;2023-07-29T11:45:23;2.90;;;1.10;;
79487;SDS011;68949;53.176;18.088;2023-07-29T11:47:57;3.20;;;1.10;;
79487;SDS011;68949;53.176;18.088;2023-07-29T11:50:27;3.30;;;1.30;;
79487;SDS011;68949;53.176;18.088;2023-07-29T11:52:54;2.80;;;1.10;;
79487;SDS011;68949;53.176;18.088;2023-07-29T11:55:21;3.50;;;1.50;;
79487;SDS011;68949;53.176;18.088;2023-07-29T11:57:51;4.00;;;1.00;;
79487;SDS011;68949;53.176;18.088;2023-07-29T12:00:20;2.70;;;1.00;;
79487;SDS011;68949;53.176;18.088;2023-07-29T12:02:51;2.90;;;1.30;;
79487;SDS011;68949;53.176;18.088;2023-07-29T12:05:21;4.30;;;1.30;;
79487;SDS011;68949;53.176;18.088;2023-07-29T12:07:49;3.70;;;1.10;;
79487;SDS011;68949;53.176;18.088;2023-07-29T12:10:16;4.10;;;1.40;;
79487;SDS011;68949;53.176;18.088;2023-07-29T12:12:47;3.10;;;0.90;;
79487;SDS011;68949;53.176;18.088;2023-07-29T12:15:27;2.80;;;1.20;;
79487;SDS011;68949;53.176;18.088;2023-07-29T12:17:56;3.60;;;1.40;;
79487;SDS011;68949;53.176;18.088;2023-07-29T12:20:28;4.80;;;1.60;;
79487;SDS011;68949;53.176;18.088;2023-07-29T12:22:57;2.60;;;1.20;;
79487;SDS011;68949;53.176;18.088;2023-07-29T12:25:26;3.40;;;1.20;;
79487;SDS011;68949;53.176;18.088;2023-07-29T12:27:54;2.90;;;1.20;;
79487;SDS011;68949;53.176;18.088;2023-07-29T12:30:22;2.40;;;1.00;;
79487;SDS011;68949;53.176;18.088;2023-07-29T12:32:49;3.70;;;1.30;;
79487;SDS011;68949;53.176;18.088;2023-07-29T12:35:16;2.90;;;1.10;;
79487;SDS011;68949;53.176;18.088;2023-07-29T12:37:43;3.10;;;1.20;;
79487;SDS011;68949;53.176;18.088;2023-07-29T12:40:25;3.30;;;1.50;;
79487;SDS011;68949;53.176;18.088;2023-07-29T12:42:53;3.10;;;1.40;;
79487;SDS011;68949;53.176;18.088;2023-07-29T12:45:19;3.40;;;1.40;;
79487;SDS011;68949;53.176;18.088;2023-07-29T12:47:49;3.80;;;1.30;;
79487;SDS011;68949;53.176;18.088;2023-07-29T12:50:16;3.30;;;1.30;;
79487;SDS011;68949;53.176;18.088;2023-07-29T12:52:42;3.00;;;1.20;;
79487;SDS011;68949;53.176;18.088;2023-07-29T12:55:09;3.70;;;1.40;;
79487;SDS011;68949;53.176;18.088;2023-07-29T12:57:42;4.00;;;1.50;;
79487;SDS011;68949;53.176;18.088;2023-07-29T13:00:10;3.50;;;1.40;;
79487;SDS011;68949;53.176;18.088;2023-07-29T13:02:37;3.70;;;1.50;;
79487;SDS011;68949;53.176;18.088;2023-07-29T13:05:05;3.10;;;1.30;;
79487;SDS011;68949;53.176;18.088;2023-07-29T13:07:32;4.50;;;1.50;;
79487;SDS011;68949;53.176;18.088;2023-07-29T13:10:00;3.10;;;1.40;;
79487;SDS011;68949;53.176;18.088;2023-07-29T13:12:26;4.00;;;1.60;;
79487;SDS011;68949;53.176;18.088;2023-07-29T13:14:54;3.40;;;1.60;;
79487;SDS011;68949;53.176;18.088;2023-07-29T13:17:24;3.60;;;1.30;;
79487;SDS011;68949;53.176;18.088;2023-07-29T13:19:51;2.90;;;1.50;;
79487;SDS011;68949;53.176;18.088;2023-07-29T13:22:19;4.30;;;1.50;;
79487;SDS011;68949;53.176;18.088;2023-07-29T13:24:46;3.40;;;1.30;;
79487;SDS011;68949;53.176;18.088;2023-07-29T13:27:13;3.10;;;1.60;;
79487;SDS011;68949;53.176;18.088;2023-07-29T13:29:40;3.60;;;1.50;;
79487;SDS011;68949;53.176;18.088;2023-07-29T13:32:07;3.20;;;1.50;;
79487;SDS011;68949;53.176;18.088;2023-07-29T13:34:34;4.10;;;1.80;;
79487;SDS011;68949;53.176;18.088;2023-07-29T13:37:01;3.30;;;1.50;;
79487;SDS011;68949;53.176;18.088;2023-07-29T13:39:28;4.50;;;1.50;;
79487;SDS011;68949;53.176;18.088;2023-07-29T13:41:55;4.00;;;1.80;;
79487;SDS011;68949;53.176;18.088;2023-07-29T13:44:22;4.20;;;1.60;;
79487;SDS011;68949;53.176;18.088;2023-07-29T13:46:48;5.40;;;1.80;;
79487;SDS011;68949;53.176;18.088;2023-07-29T13:49:15;4.50;;;1.90;;
79487;SDS011;68949;53.176;18.088;2023-07-29T13:51:42;3.90;;;1.60;;
79487;SDS011;68949;53.176;18.088;2023-07-29T13:54:11;3.80;;;1.30;;
79487;SDS011;68949;53.176;18.088;2023-07-29T13:56:38;3.60;;;1.60;;
79487;SDS011;68949;53.176;18.088;2023-07-29T13:59:05;4.10;;;1.70;;
79487;SDS011;68949;53.176;18.088;2023-07-29T14:01:31;3.30;;;1.30;;
79487;SDS011;68949;53.176;18.088;2023-07-29T14:03:58;4.00;;;1.50;;
79487;SDS011;68949;53.176;18.088;2023-07-29T14:06:24;4.60;;;1.90;;
79487;SDS011;68949;53.176;18.088;2023-07-29T14:08:51;5.50;;;1.60;;
79487;SDS011;68949;53.176;18.088;2023-07-29T14:11:18;3.50;;;1.40;;
79487;SDS011;68949;53.176;18.088;2023-07-29T14:13:44;6.60;;;1.80;;
79487;SDS011;68949;53.176;18.088;2023-07-29T14:16:11;5.10;;;1.80;;
79487;SDS011;68949;53.176;18.088;2023-07-29T14:18:38;3.80;;;1.60;;
79487;SDS011;68949;53.176;18.088;2023-07-29T14:21:06;5.00;;;1.90;;
79487;SDS011;68949;53.176;18.088;2023-07-29T14:23:32;5.60;;;2.00;;
79487;SDS011;68949;53.176;18.088;2023-07-29T14:25:59;4.30;;;1.80;;
79487;SDS011;68949;53.176;18.088;2023-07-29T14:28:25;4.40;;;1.50;;
79487;SDS011;68949;53.176;18.088;2023-07-29T14:30:52;4.60;;;1.50;;
79487;SDS011;68949;53.176;18.088;2023-07-29T14:33:19;4.50;;;1.40;;
79487;SDS011;68949;53.176;18.088;2023-07-29T14:35:46;3.90;;;1.70;;
79487;SDS011;68949;53.176;18.088;2023-07-29T14:38:12;3.90;;;1.90;;
79487;SDS011;68949;53.176;18.088;2023-07-29T14:40:39;3.40;;;1.50;;
79487;SDS011;68949;53.176;18.088;2023-07-29T14:43:06;3.70;;;1.80;;
79487;SDS011;68949;53.176;18.088;2023-07-29T14:45:32;3.90;;;1.70;;
79487;SDS011;68949;53.176;18.088;2023-07-29T14:47:59;3.80;;;1.70;;
79487;SDS011;68949;53.176;18.088;2023-07-29T14:50:25;3.40;;;1.60;;
79487;SDS011;68949;53.176;18.088;2023-07-29T14:52:52;7.70;;;2.50;;
79487;SDS011;68949;53.176;18.088;2023-07-29T14:55:19;4.00;;;1.60;;